BEE43C EGJB-EGAC
Flight info
| Callsign | BEE43C |
|---|---|
| Flight time | N/A |
| Altitude | 35000 |
| Route | SKERY DCT DAWLY DCT BCN/N0456F360 DCT SEMMU DCT IOM DCT NELBO DCT MAGEE |
| Aircraft | E75L/M-SDE3GILORVW/S |
Departure
| Time | 2026-05-08 20:42 |
|---|---|
| Airport | Guernsey Airport (EGJB) |
Arrival
| Time | N/A |
|---|---|
| Airport | George Best Belfast City Airport (EGAC) |
| Time | Latitude | Longitude | Altitude | Speed | Heading |
|---|---|---|---|---|---|
| 2026-05-08 20:13 | 49.43254 | -2.59622 | 333 ft | 0 kts | 178° |
| 2026-05-08 20:32 | 49.43260 | -2.59622 | 333 ft | 2 kts | 178° |
| 2026-05-08 20:33 | 49.43275 | -2.59623 | 333 ft | 2 kts | 178° |
| 2026-05-08 20:33 | 49.43290 | -2.59623 | 332 ft | 2 kts | 178° |
| 2026-05-08 20:33 | 49.43304 | -2.59624 | 332 ft | 2 kts | 179° |
| 2026-05-08 20:33 | 49.43320 | -2.59624 | 332 ft | 2 kts | 178° |
| 2026-05-08 20:34 | 49.43334 | -2.59625 | 332 ft | 2 kts | 179° |
| 2026-05-08 20:34 | 49.43349 | -2.59625 | 332 ft | 1 kts | 193° |
| 2026-05-08 20:34 | 49.43364 | -2.59599 | 333 ft | 1 kts | 266° |
| 2026-05-08 20:35 | 49.43363 | -2.59588 | 333 ft | 0 kts | 268° |
| 2026-05-08 20:37 | 49.43363 | -2.59589 | 333 ft | 0 kts | 268° |
| 2026-05-08 20:37 | 49.43362 | -2.59615 | 332 ft | 4 kts | 266° |
| 2026-05-08 20:37 | 49.43361 | -2.59673 | 331 ft | 3 kts | 268° |
| 2026-05-08 20:37 | 49.43356 | -2.59732 | 330 ft | 7 kts | 254° |
| 2026-05-08 20:38 | 49.43345 | -2.59824 | 328 ft | 10 kts | 269° |
| 2026-05-08 20:38 | 49.43343 | -2.59953 | 326 ft | 13 kts | 267° |
| 2026-05-08 20:38 | 49.43338 | -2.60122 | 320 ft | 18 kts | 267° |
| 2026-05-08 20:38 | 49.43333 | -2.60305 | 313 ft | 17 kts | 267° |
| 2026-05-08 20:39 | 49.43327 | -2.60487 | 306 ft | 15 kts | 267° |
| 2026-05-08 20:39 | 49.43331 | -2.60654 | 302 ft | 16 kts | 279° |
| 2026-05-08 20:39 | 49.43354 | -2.60842 | 298 ft | 19 kts | 280° |
| 2026-05-08 20:39 | 49.43363 | -2.61004 | 298 ft | 12 kts | 268° |
| 2026-05-08 20:40 | 49.43361 | -2.61122 | 298 ft | 8 kts | 268° |
| 2026-05-08 20:40 | 49.43359 | -2.61183 | 298 ft | 0 kts | 268° |
| 2026-05-08 20:40 | 49.43359 | -2.61184 | 298 ft | 0 kts | 267° |
| 2026-05-08 20:40 | 49.43359 | -2.61203 | 298 ft | 3 kts | 269° |
| 2026-05-08 20:41 | 49.43369 | -2.61267 | 297 ft | 8 kts | 301° |
| 2026-05-08 20:41 | 49.43413 | -2.61340 | 295 ft | 9 kts | 323° |
| 2026-05-08 20:41 | 49.43465 | -2.61338 | 295 ft | 7 kts | 62° |
| 2026-05-08 20:41 | 49.43468 | -2.61315 | 296 ft | 0 kts | 87° |
| 2026-05-08 20:42 | 49.43478 | -2.60938 | 297 ft | 75 kts | 87° |
| 2026-05-08 20:42 | 49.43509 | -2.59818 | 359 ft | 131 kts | 86° |
| 2026-05-08 20:42 | 49.43565 | -2.58474 | 1047 ft | 125 kts | 85° |
| 2026-05-08 20:43 | 49.43661 | -2.57102 | 1584 ft | 138 kts | 85° |
| 2026-05-08 20:43 | 49.43896 | -2.55613 | 1905 ft | 157 kts | 65° |
| 2026-05-08 20:43 | 49.44773 | -2.54475 | 2160 ft | 187 kts | 23° |
| 2026-05-08 20:43 | 49.46170 | -2.54579 | 2490 ft | 218 kts | 335° |
| 2026-05-08 20:44 | 49.47229 | -2.56255 | 3040 ft | 233 kts | 292° |
| 2026-05-08 20:44 | 49.47847 | -2.58587 | 3617 ft | 245 kts | 295° |
| 2026-05-08 20:44 | 49.48682 | -2.60993 | 3934 ft | 260 kts | 301° |
| 2026-05-08 20:44 | 49.49680 | -2.63433 | 4005 ft | 275 kts | 303° |
| 2026-05-08 20:45 | 49.50763 | -2.65878 | 3999 ft | 278 kts | 305° |
| 2026-05-08 20:45 | 49.51499 | -2.67487 | 3997 ft | 277 kts | 306° |
| 2026-05-08 20:45 | 49.52987 | -2.70681 | 4003 ft | 276 kts | 306° |
| 2026-05-08 20:45 | 49.54112 | -2.73075 | 4000 ft | 271 kts | 306° |
| 2026-05-08 20:46 | 49.55172 | -2.75322 | 3936 ft | 254 kts | 306° |
| 2026-05-08 20:46 | 49.56171 | -2.77440 | 3950 ft | 236 kts | 306° |
| 2026-05-08 20:46 | 49.57174 | -2.79563 | 4045 ft | 257 kts | 306° |
| 2026-05-08 20:46 | 49.58270 | -2.81884 | 4343 ft | 277 kts | 306° |
| 2026-05-08 20:47 | 49.59407 | -2.84298 | 4924 ft | 283 kts | 306° |
| 2026-05-08 20:47 | 49.60796 | -2.86389 | 5053 ft | 289 kts | 333° |
| 2026-05-08 20:47 | 49.62588 | -2.87770 | 5721 ft | 291 kts | 334° |
| 2026-05-08 20:47 | 49.64388 | -2.89162 | 6611 ft | 287 kts | 334° |
| 2026-05-08 20:48 | 49.66135 | -2.90524 | 7466 ft | 284 kts | 333° |
| 2026-05-08 20:48 | 49.67873 | -2.91884 | 8237 ft | 284 kts | 333° |
| 2026-05-08 20:48 | 49.69631 | -2.93264 | 8969 ft | 287 kts | 333° |
| 2026-05-08 20:48 | 49.71418 | -2.94667 | 9706 ft | 290 kts | 332° |
| 2026-05-08 20:49 | 49.73195 | -2.96066 | 10417 ft | 293 kts | 332° |
| 2026-05-08 20:49 | 49.75038 | -2.97518 | 10974 ft | 304 kts | 332° |
| 2026-05-08 20:49 | 49.76976 | -2.99046 | 11409 ft | 318 kts | 332° |
| 2026-05-08 20:49 | 49.78963 | -3.00614 | 11792 ft | 322 kts | 332° |
| 2026-05-08 20:50 | 49.80998 | -3.02221 | 12174 ft | 338 kts | 332° |
| 2026-05-08 20:50 | 49.83134 | -3.03909 | 12620 ft | 350 kts | 332° |
| 2026-05-08 20:50 | 49.85291 | -3.05615 | 13258 ft | 355 kts | 332° |
| 2026-05-08 20:50 | 49.87493 | -3.07359 | 14036 ft | 357 kts | 332° |
| 2026-05-08 20:51 | 49.89695 | -3.09105 | 14800 ft | 359 kts | 332° |
| 2026-05-08 20:51 | 49.91911 | -3.10863 | 15464 ft | 363 kts | 332° |
| 2026-05-08 20:51 | 49.94181 | -3.12668 | 16083 ft | 368 kts | 332° |
| 2026-05-08 20:51 | 49.96453 | -3.14475 | 16692 ft | 372 kts | 331° |
| 2026-05-08 20:52 | 49.98754 | -3.16307 | 17280 ft | 377 kts | 331° |
| 2026-05-08 20:52 | 50.01152 | -3.17882 | 17842 ft | 382 kts | 340° |
| 2026-05-08 20:52 | 50.03692 | -3.19152 | 18418 ft | 386 kts | 341° |
| 2026-05-08 20:52 | 50.06273 | -3.20445 | 18965 ft | 390 kts | 341° |
| 2026-05-08 20:53 | 50.08825 | -3.21725 | 19479 ft | 394 kts | 341° |
| 2026-05-08 20:53 | 50.11387 | -3.23012 | 19981 ft | 398 kts | 341° |
| 2026-05-08 20:53 | 50.13979 | -3.24316 | 20461 ft | 402 kts | 341° |
| 2026-05-08 20:53 | 50.16671 | -3.25671 | 20956 ft | 406 kts | 341° |
| 2026-05-08 20:54 | 50.19356 | -3.27024 | 21435 ft | 409 kts | 341° |
| 2026-05-08 20:54 | 50.22068 | -3.28393 | 21855 ft | 413 kts | 341° |
| 2026-05-08 20:54 | 50.24822 | -3.29785 | 22288 ft | 417 kts | 341° |
| 2026-05-08 20:54 | 50.27546 | -3.31163 | 22706 ft | 421 kts | 341° |
| 2026-05-08 20:55 | 50.30348 | -3.32583 | 23116 ft | 425 kts | 341° |
| 2026-05-08 20:55 | 50.33150 | -3.34003 | 23529 ft | 428 kts | 341° |
| 2026-05-08 20:55 | 50.35960 | -3.35430 | 23946 ft | 431 kts | 341° |
| 2026-05-08 20:55 | 50.38770 | -3.36859 | 24377 ft | 433 kts | 341° |
| 2026-05-08 20:56 | 50.41568 | -3.38283 | 24813 ft | 435 kts | 341° |
| 2026-05-08 20:56 | 50.44263 | -3.39657 | 25223 ft | 436 kts | 341° |
| 2026-05-08 20:56 | 50.46889 | -3.40998 | 25586 ft | 438 kts | 341° |